sensor_id;sensor_type;location;lat;lon;timestamp;P1;durP1;ratioP1;P2;durP2;ratioP2
64832;SDS011;51290;45.060;38.948;2023-08-06T00:02:08;674.70;;;308.92;;
64832;SDS011;51290;45.060;38.948;2023-08-06T00:04:34;701.90;;;326.90;;
64832;SDS011;51290;45.060;38.948;2023-08-06T00:07:00;663.25;;;301.73;;
64832;SDS011;51290;45.060;38.948;2023-08-06T00:09:26;644.90;;;293.00;;
64832;SDS011;51290;45.060;38.948;2023-08-06T00:11:51;614.17;;;274.45;;
64832;SDS011;51290;45.060;38.948;2023-08-06T00:14:19;646.80;;;291.88;;
64832;SDS011;51290;45.060;38.948;2023-08-06T00:16:45;647.00;;;293.95;;
64832;SDS011;51290;45.060;38.948;2023-08-06T00:19:11;666.35;;;305.30;;
64832;SDS011;51290;45.060;38.948;2023-08-06T00:21:38;670.28;;;308.67;;
64832;SDS011;51290;45.060;38.948;2023-08-06T00:24:04;673.88;;;310.95;;
64832;SDS011;51290;45.060;38.948;2023-08-06T00:26:30;671.92;;;310.67;;
64832;SDS011;51290;45.060;38.948;2023-08-06T00:28:56;673.25;;;309.85;;
64832;SDS011;51290;45.060;38.948;2023-08-06T00:31:22;652.92;;;297.50;;
64832;SDS011;51290;45.060;38.948;2023-08-06T00:33:48;663.30;;;305.35;;
64832;SDS011;51290;45.060;38.948;2023-08-06T00:36:14;680.97;;;314.25;;
64832;SDS011;51290;45.060;38.948;2023-08-06T00:38:41;668.88;;;307.60;;
64832;SDS011;51290;45.060;38.948;2023-08-06T00:41:08;653.65;;;298.42;;
64832;SDS011;51290;45.060;38.948;2023-08-06T00:43:34;682.70;;;317.35;;
64832;SDS011;51290;45.060;38.948;2023-08-06T00:46:00;670.25;;;309.13;;
64832;SDS011;51290;45.060;38.948;2023-08-06T00:48:26;647.95;;;293.20;;
64832;SDS011;51290;45.060;38.948;2023-08-06T00:50:52;637.67;;;289.77;;
64832;SDS011;51290;45.060;38.948;2023-08-06T00:53:20;664.78;;;303.23;;
64832;SDS011;51290;45.060;38.948;2023-08-06T00:55:46;626.67;;;281.92;;
64832;SDS011;51290;45.060;38.948;2023-08-06T00:58:13;652.45;;;299.20;;
64832;SDS011;51290;45.060;38.948;2023-08-06T01:00:41;679.33;;;311.20;;
64832;SDS011;51290;45.060;38.948;2023-08-06T01:03:09;651.00;;;298.10;;
64832;SDS011;51290;45.060;38.948;2023-08-06T01:05:35;661.55;;;302.90;;
64832;SDS011;51290;45.060;38.948;2023-08-06T01:10:40;624.05;;;279.83;;
64832;SDS011;51290;45.060;38.948;2023-08-06T01:13:17;661.25;;;304.92;;
64832;SDS011;51290;45.060;38.948;2023-08-06T01:15:51;644.85;;;292.17;;
64832;SDS011;51290;45.060;38.948;2023-08-06T01:18:24;666.78;;;308.75;;
64832;SDS011;51290;45.060;38.948;2023-08-06T01:20:50;600.95;;;268.17;;
64832;SDS011;51290;45.060;38.948;2023-08-06T01:23:16;633.20;;;287.55;;
64832;SDS011;51290;45.060;38.948;2023-08-06T01:25:49;648.13;;;297.20;;
64832;SDS011;51290;45.060;38.948;2023-08-06T01:31:21;657.15;;;302.83;;
64832;SDS011;51290;45.060;38.948;2023-08-06T01:33:51;662.42;;;305.83;;
64832;SDS011;51290;45.060;38.948;2023-08-06T01:36:19;667.17;;;307.05;;
64832;SDS011;51290;45.060;38.948;2023-08-06T01:38:46;696.95;;;327.65;;
64832;SDS011;51290;45.060;38.948;2023-08-06T01:41:12;691.95;;;322.52;;
64832;SDS011;51290;45.060;38.948;2023-08-06T01:43:38;688.28;;;320.85;;
64832;SDS011;51290;45.060;38.948;2023-08-06T01:46:04;702.67;;;331.38;;
64832;SDS011;51290;45.060;38.948;2023-08-06T01:48:31;692.22;;;324.95;;
64832;SDS011;51290;45.060;38.948;2023-08-06T01:50:57;694.50;;;325.10;;
64832;SDS011;51290;45.060;38.948;2023-08-06T01:53:23;702.13;;;329.00;;
64832;SDS011;51290;45.060;38.948;2023-08-06T01:55:51;699.83;;;328.98;;
64832;SDS011;51290;45.060;38.948;2023-08-06T01:58:18;688.72;;;323.60;;
64832;SDS011;51290;45.060;38.948;2023-08-06T02:00:44;705.33;;;331.98;;
64832;SDS011;51290;45.060;38.948;2023-08-06T02:03:10;700.95;;;328.92;;
64832;SDS011;51290;45.060;38.948;2023-08-06T02:05:36;703.92;;;333.27;;
64832;SDS011;51290;45.060;38.948;2023-08-06T02:08:02;694.17;;;325.90;;
64832;SDS011;51290;45.060;38.948;2023-08-06T02:10:29;691.63;;;324.60;;
64832;SDS011;51290;45.060;38.948;2023-08-06T02:12:55;688.78;;;321.23;;
64832;SDS011;51290;45.060;38.948;2023-08-06T02:15:21;682.05;;;317.30;;
64832;SDS011;51290;45.060;38.948;2023-08-06T02:17:47;685.17;;;319.63;;
64832;SDS011;51290;45.060;38.948;2023-08-06T02:20:13;676.42;;;315.55;;
64832;SDS011;51290;45.060;38.948;2023-08-06T02:22:39;673.70;;;313.65;;
64832;SDS011;51290;45.060;38.948;2023-08-06T02:25:07;686.92;;;322.25;;
64832;SDS011;51290;45.060;38.948;2023-08-06T02:27:34;666.28;;;309.38;;
64832;SDS011;51290;45.060;38.948;2023-08-06T02:30:01;685.97;;;320.55;;
64832;SDS011;51290;45.060;38.948;2023-08-06T02:32:29;721.75;;;344.88;;
64832;SDS011;51290;45.060;38.948;2023-08-06T02:34:59;726.05;;;343.85;;
64832;SDS011;51290;45.060;38.948;2023-08-06T02:37:25;742.17;;;355.90;;
64832;SDS011;51290;45.060;38.948;2023-08-06T02:39:51;773.13;;;372.60;;
64832;SDS011;51290;45.060;38.948;2023-08-06T02:42:17;802.65;;;386.65;;
64832;SDS011;51290;45.060;38.948;2023-08-06T02:44:43;743.33;;;356.15;;
64832;SDS011;51290;45.060;38.948;2023-08-06T02:47:09;786.80;;;378.60;;
64832;SDS011;51290;45.060;38.948;2023-08-06T02:49:35;762.80;;;366.02;;
64832;SDS011;51290;45.060;38.948;2023-08-06T02:52:01;782.50;;;376.17;;
64832;SDS011;51290;45.060;38.948;2023-08-06T02:54:27;794.67;;;382.33;;
64832;SDS011;51290;45.060;38.948;2023-08-06T02:56:54;802.35;;;385.95;;
64832;SDS011;51290;45.060;38.948;2023-08-06T02:59:32;813.30;;;392.92;;
64832;SDS011;51290;45.060;38.948;2023-08-06T03:02:08;830.72;;;401.52;;
64832;SDS011;51290;45.060;38.948;2023-08-06T03:04:50;714.08;;;341.40;;
64832;SDS011;51290;45.060;38.948;2023-08-06T03:07:19;742.38;;;355.73;;
64832;SDS011;51290;45.060;38.948;2023-08-06T03:09:52;697.78;;;330.65;;
64832;SDS011;51290;45.060;38.948;2023-08-06T03:12:19;742.75;;;356.05;;
64832;SDS011;51290;45.060;38.948;2023-08-06T03:14:46;760.47;;;361.98;;
64832;SDS011;51290;45.060;38.948;2023-08-06T03:17:13;742.85;;;352.02;;
64832;SDS011;51290;45.060;38.948;2023-08-06T03:19:40;774.95;;;369.60;;
64832;SDS011;51290;45.060;38.948;2023-08-06T03:22:06;756.80;;;359.02;;
64832;SDS011;51290;45.060;38.948;2023-08-06T03:24:34;764.72;;;361.73;;
64832;SDS011;51290;45.060;38.948;2023-08-06T03:27:00;784.33;;;370.20;;
64832;SDS011;51290;45.060;38.948;2023-08-06T03:29:26;778.67;;;368.02;;
64832;SDS011;51290;45.060;38.948;2023-08-06T03:31:53;800.17;;;377.13;;
64832;SDS011;51290;45.060;38.948;2023-08-06T03:34:20;782.50;;;367.77;;
64832;SDS011;51290;45.060;38.948;2023-08-06T03:36:48;755.40;;;353.55;;
64832;SDS011;51290;45.060;38.948;2023-08-06T03:39:14;841.72;;;399.52;;
64832;SDS011;51290;45.060;38.948;2023-08-06T03:41:41;828.97;;;391.40;;
64832;SDS011;51290;45.060;38.948;2023-08-06T03:44:07;807.30;;;378.50;;
64832;SDS011;51290;45.060;38.948;2023-08-06T03:46:33;764.28;;;354.08;;
64832;SDS011;51290;45.060;38.948;2023-08-06T03:49:01;770.65;;;355.92;;
64832;SDS011;51290;45.060;38.948;2023-08-06T03:51:27;788.47;;;367.58;;
64832;SDS011;51290;45.060;38.948;2023-08-06T03:53:58;797.10;;;372.90;;
64832;SDS011;51290;45.060;38.948;2023-08-06T03:56:24;811.17;;;380.58;;
64832;SDS011;51290;45.060;38.948;2023-08-06T03:58:53;804.35;;;375.25;;
64832;SDS011;51290;45.060;38.948;2023-08-06T04:01:19;828.95;;;389.42;;
64832;SDS011;51290;45.060;38.948;2023-08-06T04:03:47;772.17;;;358.23;;
64832;SDS011;51290;45.060;38.948;2023-08-06T04:06:13;838.17;;;393.52;;
64832;SDS011;51290;45.060;38.948;2023-08-06T04:08:39;885.75;;;420.95;;
64832;SDS011;51290;45.060;38.948;2023-08-06T04:11:06;923.40;;;439.88;;
64832;SDS011;51290;45.060;38.948;2023-08-06T04:13:33;884.85;;;418.85;;
64832;SDS011;51290;45.060;38.948;2023-08-06T04:16:02;889.63;;;421.77;;
64832;SDS011;51290;45.060;38.948;2023-08-06T04:18:30;875.45;;;410.83;;
64832;SDS011;51290;45.060;38.948;2023-08-06T04:20:56;904.55;;;430.15;;
64832;SDS011;51290;45.060;38.948;2023-08-06T04:23:23;871.35;;;412.38;;
64832;SDS011;51290;45.060;38.948;2023-08-06T04:25:52;894.55;;;422.05;;
64832;SDS011;51290;45.060;38.948;2023-08-06T04:28:24;887.65;;;422.67;;
64832;SDS011;51290;45.060;38.948;2023-08-06T04:30:50;913.33;;;431.80;;
64832;SDS011;51290;45.060;38.948;2023-08-06T04:33:16;991.15;;;468.67;;
64832;SDS011;51290;45.060;38.948;2023-08-06T04:35:44;1025.22;;;484.10;;
64832;SDS011;51290;45.060;38.948;2023-08-06T04:38:10;1013.03;;;480.23;;
64832;SDS011;51290;45.060;38.948;2023-08-06T04:40:37;949.67;;;451.50;;
64832;SDS011;51290;45.060;38.948;2023-08-06T04:43:03;999.55;;;474.23;;
64832;SDS011;51290;45.060;38.948;2023-08-06T04:45:32;858.35;;;406.27;;
64832;SDS011;51290;45.060;38.948;2023-08-06T04:47:59;959.55;;;456.60;;
64832;SDS011;51290;45.060;38.948;2023-08-06T04:50:25;949.80;;;451.38;;
64832;SDS011;51290;45.060;38.948;2023-08-06T04:52:51;1004.05;;;476.00;;
64832;SDS011;51290;45.060;38.948;2023-08-06T04:55:17;1034.63;;;487.15;;
64832;SDS011;51290;45.060;38.948;2023-08-06T04:57:43;922.22;;;439.10;;
64832;SDS011;51290;45.060;38.948;2023-08-06T05:00:09;981.70;;;467.20;;
64832;SDS011;51290;45.060;38.948;2023-08-06T05:02:35;938.65;;;446.20;;
64832;SDS011;51290;45.060;38.948;2023-08-06T05:05:03;985.08;;;467.98;;
64832;SDS011;51290;45.060;38.948;2023-08-06T05:07:29;972.28;;;462.13;;
64832;SDS011;51290;45.060;38.948;2023-08-06T05:09:55;926.58;;;438.98;;
64832;SDS011;51290;45.060;38.948;2023-08-06T05:12:21;925.97;;;441.20;;
64832;SDS011;51290;45.060;38.948;2023-08-06T05:14:47;851.03;;;402.40;;
64832;SDS011;51290;45.060;38.948;2023-08-06T05:17:13;942.50;;;449.60;;
64832;SDS011;51290;45.060;38.948;2023-08-06T05:19:39;947.58;;;450.50;;
64832;SDS011;51290;45.060;38.948;2023-08-06T05:22:05;843.20;;;396.52;;
64832;SDS011;51290;45.060;38.948;2023-08-06T05:24:31;866.00;;;409.90;;
64832;SDS011;51290;45.060;38.948;2023-08-06T05:26:57;901.03;;;426.73;;
64832;SDS011;51290;45.060;38.948;2023-08-06T05:29:23;1007.03;;;477.25;;
64832;SDS011;51290;45.060;38.948;2023-08-06T05:31:49;940.42;;;447.88;;
64832;SDS011;51290;45.060;38.948;2023-08-06T05:34:15;972.08;;;462.85;;
64832;SDS011;51290;45.060;38.948;2023-08-06T05:36:41;1039.88;;;489.83;;
64832;SDS011;51290;45.060;38.948;2023-08-06T05:39:07;1019.05;;;481.23;;
64832;SDS011;51290;45.060;38.948;2023-08-06T05:41:42;893.58;;;425.25;;
64832;SDS011;51290;45.060;38.948;2023-08-06T05:44:08;785.92;;;367.05;;
64832;SDS011;51290;45.060;38.948;2023-08-06T05:46:36;868.72;;;411.05;;
64832;SDS011;51290;45.060;38.948;2023-08-06T05:49:02;1022.72;;;483.80;;
64832;SDS011;51290;45.060;38.948;2023-08-06T05:51:28;1111.30;;;517.95;;
64832;SDS011;51290;45.060;38.948;2023-08-06T05:53:54;1239.88;;;569.08;;
64832;SDS011;51290;45.060;38.948;2023-08-06T05:56:20;1211.28;;;555.08;;
64832;SDS011;51290;45.060;38.948;2023-08-06T05:58:46;1266.63;;;578.53;;
64832;SDS011;51290;45.060;38.948;2023-08-06T06:01:13;1271.13;;;581.53;;
64832;SDS011;51290;45.060;38.948;2023-08-06T06:03:40;1131.22;;;530.28;;
64832;SDS011;51290;45.060;38.948;2023-08-06T06:06:09;1185.38;;;545.90;;
64832;SDS011;51290;45.060;38.948;2023-08-06T06:08:38;1066.82;;;500.95;;
64832;SDS011;51290;45.060;38.948;2023-08-06T06:11:04;1293.93;;;587.92;;
64832;SDS011;51290;45.060;38.948;2023-08-06T06:13:30;1257.32;;;572.50;;
64832;SDS011;51290;45.060;38.948;2023-08-06T06:15:55;1319.70;;;593.47;;
64832;SDS011;51290;45.060;38.948;2023-08-06T06:18:22;1310.95;;;592.47;;
64832;SDS011;51290;45.060;38.948;2023-08-06T06:20:48;1342.60;;;602.13;;
64832;SDS011;51290;45.060;38.948;2023-08-06T06:23:14;1563.00;;;682.05;;
64832;SDS011;51290;45.060;38.948;2023-08-06T06:25:49;1376.88;;;617.65;;
64832;SDS011;51290;45.060;38.948;2023-08-06T06:28:18;1472.30;;;657.40;;
64832;SDS011;51290;45.060;38.948;2023-08-06T06:30:48;1610.75;;;711.85;;
64832;SDS011;51290;45.060;38.948;2023-08-06T06:33:14;1534.03;;;686.75;;
64832;SDS011;51290;45.060;38.948;2023-08-06T06:35:40;1805.47;;;779.83;;
64832;SDS011;51290;45.060;38.948;2023-08-06T06:38:06;1342.63;;;616.80;;
64832;SDS011;51290;45.060;38.948;2023-08-06T06:40:32;1757.10;;;767.72;;
64832;SDS011;51290;45.060;38.948;2023-08-06T06:42:58;1811.00;;;788.00;;
64832;SDS011;51290;45.060;38.948;2023-08-06T06:45:24;1748.65;;;768.60;;
64832;SDS011;51290;45.060;38.948;2023-08-06T06:47:50;1659.03;;;735.50;;
64832;SDS011;51290;45.060;38.948;2023-08-06T06:50:16;1446.72;;;661.90;;
64832;SDS011;51290;45.060;38.948;2023-08-06T06:52:42;1999.90;;;860.45;;
64832;SDS011;51290;45.060;38.948;2023-08-06T06:55:08;1999.90;;;980.50;;
64832;SDS011;51290;45.060;38.948;2023-08-06T06:57:34;1999.90;;;971.10;;
64832;SDS011;51290;45.060;38.948;2023-08-06T07:00:18;1083.90;;;525.17;;
64832;SDS011;51290;45.060;38.948;2023-08-06T07:02:44;1087.35;;;524.40;;
64832;SDS011;51290;45.060;38.948;2023-08-06T07:05:10;910.70;;;442.08;;
64832;SDS011;51290;45.060;38.948;2023-08-06T07:07:36;960.60;;;468.15;;
64832;SDS011;51290;45.060;38.948;2023-08-06T07:10:03;973.83;;;472.33;;
64832;SDS011;51290;45.060;38.948;2023-08-06T07:12:31;946.58;;;461.20;;
64832;SDS011;51290;45.060;38.948;2023-08-06T07:14:59;1655.55;;;736.92;;
64832;SDS011;51290;45.060;38.948;2023-08-06T07:17:25;1999.90;;;888.38;;
64832;SDS011;51290;45.060;38.948;2023-08-06T07:19:51;1972.22;;;818.30;;
64832;SDS011;51290;45.060;38.948;2023-08-06T07:22:17;1772.78;;;758.28;;
64832;SDS011;51290;45.060;38.948;2023-08-06T07:24:43;1873.50;;;789.53;;
64832;SDS011;51290;45.060;38.948;2023-08-06T07:27:08;1894.95;;;793.00;;
64832;SDS011;51290;45.060;38.948;2023-08-06T07:29:40;1793.45;;;767.10;;
64832;SDS011;51290;45.060;38.948;2023-08-06T07:32:08;1193.57;;;491.25;;
64832;SDS011;51290;45.060;38.948;2023-08-06T07:34:34;67.22;;;45.85;;
64832;SDS011;51290;45.060;38.948;2023-08-06T07:37:00;262.88;;;114.80;;
64832;SDS011;51290;45.060;38.948;2023-08-06T07:39:26;226.40;;;104.10;;
64832;SDS011;51290;45.060;38.948;2023-08-06T07:41:54;157.05;;;77.82;;
64832;SDS011;51290;45.060;38.948;2023-08-06T07:44:20;164.65;;;80.40;;
64832;SDS011;51290;45.060;38.948;2023-08-06T07:46:46;125.15;;;63.60;;
64832;SDS011;51290;45.060;38.948;2023-08-06T07:49:11;144.30;;;72.15;;
64832;SDS011;51290;45.060;38.948;2023-08-06T07:51:37;19.92;;;18.02;;
64832;SDS011;51290;45.060;38.948;2023-08-06T07:54:04;39.63;;;23.83;;
64832;SDS011;51290;45.060;38.948;2023-08-06T07:56:31;13.77;;;10.30;;
64832;SDS011;51290;45.060;38.948;2023-08-06T07:58:57;10.75;;;7.35;;
64832;SDS011;51290;45.060;38.948;2023-08-06T08:01:23;16.90;;;15.32;;
64832;SDS011;51290;45.060;38.948;2023-08-06T08:03:51;10.98;;;9.38;;
64832;SDS011;51290;45.060;38.948;2023-08-06T08:06:17;16.75;;;7.63;;
64832;SDS011;51290;45.060;38.948;2023-08-06T08:08:43;15.77;;;5.63;;
64832;SDS011;51290;45.060;38.948;2023-08-06T08:11:18;11.15;;;7.03;;
64832;SDS011;51290;45.060;38.948;2023-08-06T08:13:44;9.95;;;5.82;;
64832;SDS011;51290;45.060;38.948;2023-08-06T08:16:28;8.35;;;5.00;;
64832;SDS011;51290;45.060;38.948;2023-08-06T08:18:54;13.82;;;7.10;;
64832;SDS011;51290;45.060;38.948;2023-08-06T08:21:20;7.07;;;4.70;;
64832;SDS011;51290;45.060;38.948;2023-08-06T08:23:55;8.00;;;4.93;;
64832;SDS011;51290;45.060;38.948;2023-08-06T08:26:20;9.20;;;5.55;;
64832;SDS011;51290;45.060;38.948;2023-08-06T08:28:47;10.73;;;6.05;;
64832;SDS011;51290;45.060;38.948;2023-08-06T08:31:13;11.20;;;5.88;;
64832;SDS011;51290;45.060;38.948;2023-08-06T08:33:41;12.50;;;11.15;;
64832;SDS011;51290;45.060;38.948;2023-08-06T08:36:07;14.05;;;8.10;;
64832;SDS011;51290;45.060;38.948;2023-08-06T08:38:35;9.23;;;7.78;;
64832;SDS011;51290;45.060;38.948;2023-08-06T08:41:01;24.05;;;6.93;;
64832;SDS011;51290;45.060;38.948;2023-08-06T08:43:27;11.77;;;5.18;;
64832;SDS011;51290;45.060;38.948;2023-08-06T08:45:54;9.77;;;4.30;;
64832;SDS011;51290;45.060;38.948;2023-08-06T08:48:24;7.80;;;4.47;;
64832;SDS011;51290;45.060;38.948;2023-08-06T08:50:52;9.25;;;4.43;;
64832;SDS011;51290;45.060;38.948;2023-08-06T08:53:18;14.50;;;5.03;;
64832;SDS011;51290;45.060;38.948;2023-08-06T08:55:47;9.73;;;4.65;;
64832;SDS011;51290;45.060;38.948;2023-08-06T08:58:15;8.93;;;3.90;;
64832;SDS011;51290;45.060;38.948;2023-08-06T09:00:41;9.27;;;4.55;;
64832;SDS011;51290;45.060;38.948;2023-08-06T09:03:07;19.75;;;4.78;;
64832;SDS011;51290;45.060;38.948;2023-08-06T09:05:33;6.10;;;4.03;;
64832;SDS011;51290;45.060;38.948;2023-08-06T09:08:03;6.93;;;4.30;;
64832;SDS011;51290;45.060;38.948;2023-08-06T09:10:30;14.25;;;4.63;;
64832;SDS011;51290;45.060;38.948;2023-08-06T09:12:57;9.57;;;4.03;;
64832;SDS011;51290;45.060;38.948;2023-08-06T09:15:24;9.48;;;4.63;;
64832;SDS011;51290;45.060;38.948;2023-08-06T09:17:54;10.10;;;5.00;;
64832;SDS011;51290;45.060;38.948;2023-08-06T09:20:20;14.13;;;4.40;;
64832;SDS011;51290;45.060;38.948;2023-08-06T09:22:46;16.35;;;4.22;;
64832;SDS011;51290;45.060;38.948;2023-08-06T09:25:21;12.43;;;4.45;;
64832;SDS011;51290;45.060;38.948;2023-08-06T09:27:50;13.25;;;4.57;;
64832;SDS011;51290;45.060;38.948;2023-08-06T09:30:29;13.32;;;4.43;;
64832;SDS011;51290;45.060;38.948;2023-08-06T09:32:59;8.57;;;4.30;;
64832;SDS011;51290;45.060;38.948;2023-08-06T09:35:29;12.68;;;4.03;;
64832;SDS011;51290;45.060;38.948;2023-08-06T09:38:04;7.50;;;4.10;;
64832;SDS011;51290;45.060;38.948;2023-08-06T09:40:37;5.28;;;3.47;;
64832;SDS011;51290;45.060;38.948;2023-08-06T09:43:04;8.13;;;3.90;;
64832;SDS011;51290;45.060;38.948;2023-08-06T09:45:33;9.27;;;4.10;;
64832;SDS011;51290;45.060;38.948;2023-08-06T09:48:07;15.50;;;4.00;;
64832;SDS011;51290;45.060;38.948;2023-08-06T09:50:35;7.85;;;3.55;;
64832;SDS011;51290;45.060;38.948;2023-08-06T09:53:04;9.45;;;3.85;;
64832;SDS011;51290;45.060;38.948;2023-08-06T09:55:36;21.83;;;4.93;;
64832;SDS011;51290;45.060;38.948;2023-08-06T09:58:03;7.03;;;3.78;;
64832;SDS011;51290;45.060;38.948;2023-08-06T10:00:30;6.50;;;3.35;;
64832;SDS011;51290;45.060;38.948;2023-08-06T10:03:01;11.48;;;4.38;;
64832;SDS011;51290;45.060;38.948;2023-08-06T10:05:28;8.60;;;4.20;;
64832;SDS011;51290;45.060;38.948;2023-08-06T10:07:57;9.00;;;3.30;;
64832;SDS011;51290;45.060;38.948;2023-08-06T10:10:25;7.70;;;4.00;;
64832;SDS011;51290;45.060;38.948;2023-08-06T10:12:54;8.52;;;3.55;;
64832;SDS011;51290;45.060;38.948;2023-08-06T10:15:24;6.38;;;3.92;;
64832;SDS011;51290;45.060;38.948;2023-08-06T10:17:52;9.23;;;4.30;;
64832;SDS011;51290;45.060;38.948;2023-08-06T10:20:21;9.20;;;4.47;;
64832;SDS011;51290;45.060;38.948;2023-08-06T10:23:01;21.35;;;4.28;;
64832;SDS011;51290;45.060;38.948;2023-08-06T10:25:31;9.57;;;4.50;;
64832;SDS011;51290;45.060;38.948;2023-08-06T10:28:07;6.20;;;4.00;;
64832;SDS011;51290;45.060;38.948;2023-08-06T10:30:46;9.32;;;4.00;;
64832;SDS011;51290;45.060;38.948;2023-08-06T10:33:15;7.07;;;3.97;;
64832;SDS011;51290;45.060;38.948;2023-08-06T10:35:46;17.30;;;4.65;;
64832;SDS011;51290;45.060;38.948;2023-08-06T10:38:22;8.63;;;3.80;;
64832;SDS011;51290;45.060;38.948;2023-08-06T10:43:27;10.90;;;3.80;;
64832;SDS011;51290;45.060;38.948;2023-08-06T10:45:55;9.75;;;3.72;;
64832;SDS011;51290;45.060;38.948;2023-08-06T10:48:33;8.60;;;3.95;;
64832;SDS011;51290;45.060;38.948;2023-08-06T10:51:10;14.98;;;4.40;;
64832;SDS011;51290;45.060;38.948;2023-08-06T10:53:57;12.15;;;3.90;;
64832;SDS011;51290;45.060;38.948;2023-08-06T10:56:24;8.68;;;4.00;;
64832;SDS011;51290;45.060;38.948;2023-08-06T10:58:57;10.48;;;3.97;;
64832;SDS011;51290;45.060;38.948;2023-08-06T11:01:23;14.95;;;4.50;;
64832;SDS011;51290;45.060;38.948;2023-08-06T11:03:49;11.05;;;4.57;;
64832;SDS011;51290;45.060;38.948;2023-08-06T11:06:18;11.48;;;4.35;;
64832;SDS011;51290;45.060;38.948;2023-08-06T11:08:54;13.57;;;4.32;;
64832;SDS011;51290;45.060;38.948;2023-08-06T11:11:20;13.60;;;3.78;;
64832;SDS011;51290;45.060;38.948;2023-08-06T11:13:48;6.63;;;3.25;;
64832;SDS011;51290;45.060;38.948;2023-08-06T11:16:15;10.55;;;3.85;;
64832;SDS011;51290;45.060;38.948;2023-08-06T11:18:45;10.57;;;3.53;;
64832;SDS011;51290;45.060;38.948;2023-08-06T11:21:13;15.30;;;4.20;;
64832;SDS011;51290;45.060;38.948;2023-08-06T11:23:39;11.68;;;4.55;;
64832;SDS011;51290;45.060;38.948;2023-08-06T11:26:06;12.25;;;3.78;;
64832;SDS011;51290;45.060;38.948;2023-08-06T11:28:32;9.82;;;4.68;;
64832;SDS011;51290;45.060;38.948;2023-08-06T11:30:58;10.93;;;3.67;;
64832;SDS011;51290;45.060;38.948;2023-08-06T11:33:27;11.98;;;3.78;;
64832;SDS011;51290;45.060;38.948;2023-08-06T11:35:54;6.03;;;3.78;;
64832;SDS011;51290;45.060;38.948;2023-08-06T11:38:29;10.65;;;3.75;;
64832;SDS011;51290;45.060;38.948;2023-08-06T11:40:56;10.27;;;4.13;;
64832;SDS011;51290;45.060;38.948;2023-08-06T11:43:22;10.80;;;3.97;;
64832;SDS011;51290;45.060;38.948;2023-08-06T11:45:49;11.02;;;3.58;;
64832;SDS011;51290;45.060;38.948;2023-08-06T11:48:16;9.52;;;3.95;;
64832;SDS011;51290;45.060;38.948;2023-08-06T11:50:43;14.52;;;4.18;;
64832;SDS011;51290;45.060;38.948;2023-08-06T11:53:11;10.02;;;4.38;;
64832;SDS011;51290;45.060;38.948;2023-08-06T11:55:39;5.53;;;3.90;;
64832;SDS011;51290;45.060;38.948;2023-08-06T11:58:06;8.30;;;4.10;;
64832;SDS011;51290;45.060;38.948;2023-08-06T12:00:32;10.50;;;3.90;;
64832;SDS011;51290;45.060;38.948;2023-08-06T12:02:58;9.63;;;4.30;;
64832;SDS011;51290;45.060;38.948;2023-08-06T12:05:31;13.52;;;4.43;;
64832;SDS011;51290;45.060;38.948;2023-08-06T12:08:00;8.63;;;3.72;;
64832;SDS011;51290;45.060;38.948;2023-08-06T12:10:29;7.90;;;3.97;;
64832;SDS011;51290;45.060;38.948;2023-08-06T12:12:57;8.40;;;4.20;;
64832;SDS011;51290;45.060;38.948;2023-08-06T12:15:23;13.52;;;3.72;;
64832;SDS011;51290;45.060;38.948;2023-08-06T12:17:49;8.55;;;4.05;;
64832;SDS011;51290;45.060;38.948;2023-08-06T12:20:15;10.27;;;3.72;;
64832;SDS011;51290;45.060;38.948;2023-08-06T12:22:42;10.52;;;4.00;;
64832;SDS011;51290;45.060;38.948;2023-08-06T12:25:08;6.20;;;3.75;;
64832;SDS011;51290;45.060;38.948;2023-08-06T12:27:38;6.50;;;4.05;;
64832;SDS011;51290;45.060;38.948;2023-08-06T12:30:05;6.60;;;4.15;;
64832;SDS011;51290;45.060;38.948;2023-08-06T12:32:32;4.57;;;3.22;;
64832;SDS011;51290;45.060;38.948;2023-08-06T12:34:59;7.35;;;3.65;;
64832;SDS011;51290;45.060;38.948;2023-08-06T12:37:26;12.60;;;3.75;;
64832;SDS011;51290;45.060;38.948;2023-08-06T12:39:52;13.70;;;3.92;;
64832;SDS011;51290;45.060;38.948;2023-08-06T12:42:18;9.18;;;4.30;;
64832;SDS011;51290;45.060;38.948;2023-08-06T12:44:45;6.55;;;3.90;;
64832;SDS011;51290;45.060;38.948;2023-08-06T12:47:11;8.10;;;3.65;;
64832;SDS011;51290;45.060;38.948;2023-08-06T12:49:36;7.40;;;3.70;;
64832;SDS011;51290;45.060;38.948;2023-08-06T12:52:03;4.97;;;3.13;;
64832;SDS011;51290;45.060;38.948;2023-08-06T12:54:31;10.65;;;4.15;;
64832;SDS011;51290;45.060;38.948;2023-08-06T12:57:02;6.88;;;4.28;;
64832;SDS011;51290;45.060;38.948;2023-08-06T12:59:34;4.57;;;3.53;;
64832;SDS011;51290;45.060;38.948;2023-08-06T13:02:02;15.40;;;4.03;;
64832;SDS011;51290;45.060;38.948;2023-08-06T13:04:29;8.25;;;3.90;;
64832;SDS011;51290;45.060;38.948;2023-08-06T13:06:56;7.50;;;3.50;;
64832;SDS011;51290;45.060;38.948;2023-08-06T13:09:22;8.73;;;3.60;;
64832;SDS011;51290;45.060;38.948;2023-08-06T13:11:48;9.25;;;3.63;;
64832;SDS011;51290;45.060;38.948;2023-08-06T13:14:25;20.42;;;3.90;;
64832;SDS011;51290;45.060;38.948;2023-08-06T13:16:51;7.43;;;3.55;;
64832;SDS011;51290;45.060;38.948;2023-08-06T13:19:17;6.53;;;3.83;;
64832;SDS011;51290;45.060;38.948;2023-08-06T13:24:12;7.78;;;3.60;;
64832;SDS011;51290;45.060;38.948;2023-08-06T13:26:38;11.18;;;3.80;;
64832;SDS011;51290;45.060;38.948;2023-08-06T13:29:04;8.13;;;3.72;;
64832;SDS011;51290;45.060;38.948;2023-08-06T13:31:32;10.10;;;4.10;;
64832;SDS011;51290;45.060;38.948;2023-08-06T13:33:58;7.70;;;3.80;;
64832;SDS011;51290;45.060;38.948;2023-08-06T13:36:25;10.13;;;4.50;;
64832;SDS011;51290;45.060;38.948;2023-08-06T13:38:52;6.20;;;3.97;;
64832;SDS011;51290;45.060;38.948;2023-08-06T13:41:18;9.55;;;4.30;;
64832;SDS011;51290;45.060;38.948;2023-08-06T13:43:44;7.03;;;4.10;;
64832;SDS011;51290;45.060;38.948;2023-08-06T13:46:10;10.60;;;4.10;;
64832;SDS011;51290;45.060;38.948;2023-08-06T13:48:45;6.50;;;3.80;;
64832;SDS011;51290;45.060;38.948;2023-08-06T13:51:12;12.10;;;4.20;;
64832;SDS011;51290;45.060;38.948;2023-08-06T13:53:41;6.00;;;4.03;;
64832;SDS011;51290;45.060;38.948;2023-08-06T13:56:07;10.90;;;3.80;;
64832;SDS011;51290;45.060;38.948;2023-08-06T13:58:37;7.93;;;4.05;;
64832;SDS011;51290;45.060;38.948;2023-08-06T14:01:04;8.05;;;3.30;;
64832;SDS011;51290;45.060;38.948;2023-08-06T14:03:30;8.43;;;3.80;;
64832;SDS011;51290;45.060;38.948;2023-08-06T14:05:56;7.45;;;3.78;;
64832;SDS011;51290;45.060;38.948;2023-08-06T14:08:22;10.95;;;3.75;;
64832;SDS011;51290;45.060;38.948;2023-08-06T14:10:49;7.63;;;3.70;;
64832;SDS011;51290;45.060;38.948;2023-08-06T14:13:24;7.28;;;3.70;;
64832;SDS011;51290;45.060;38.948;2023-08-06T14:15:50;10.13;;;4.00;;